Morton, MS

11:58 PM CST on December 21, 2014 (GMT -0600)
Leesburg | Change Station
CLOSE
Current Station
Personal Weather Station
Location: Morton, MS
Elevation: 404 ft
Nearby Weather Stations

Elev 404 ft 32.41 °N, 89.75 °W | Updated 7 minutes ago

Overcast
Overcast
49.9 °F
Feels Like 50 °F
N
1.0
Wind Variable Wind from SSE
Gusts 3.0 mph

Today
High -- | Low -- °F
--% Chance of Precip.
Yesterday
High -- | Low -- °F
Precip. -- in
6:55 AM 4:57 PM
New Moon, 0% visible
Pressure 29.94 in
Visibility 7.0 miles
Clouds Overcast 600 ft
Windchill 50 °F
Dew Point 48 °F
Humidity 93%
Rainfall 0.00 in
Snow Depth Not available.
UV 0 out of 12
Pollen 2.20 out of 12
Air Quality Not available.
Flu Activity Not available.
METAR KJAN 220554Z AUTO 13007KT 7SM OVC006 11/09 A2994 RMK AO2 SLP139 T01060094 10106 20094 401610022 58019

More Conditions Fewer Conditions

Pressure 29.94 in
Visibility 7.0 miles
Clouds Overcast 600 ft
Windchill 50 °F
Dew Point 48 °F
Humidity 93%
Rainfall 0.00 in
Snow Depth Not available.
UV 0 out of 12
Pollen 2.20 out of 12
Air Quality Not available.
Flu Activity Not available.
METAR KJAN 220554Z AUTO 13007KT 7SM OVC006 11/09 A2994 RMK AO2 SLP139 T01060094 10106 20094 401610022 58019

More Conditions Fewer Conditions

10-Day Weather Forecast

Almanac

Astronomy

Dec. 21, 2014 Rise Set
Actual Time
Civil Twilight
Nautical Twilight
Astronomical Twilight
Moon
Length of Visible Light
Length of Day
Tomorrow will be .
, % of the Moon is Illuminated

Today's Extremes

State Highs State Lows

Community

WunderPhotos

Upload Photos

1,779,549 photos uploaded!

WunderBlogs® & News

Nearby

Air Quality

  Air Quality AQ Index Pollutant
Not available.

Snow Depth

Station Depth Elevation

Earthquake Activity

City Distance Mag. Time & Date
Minimum magnitude displayed is 2.5.

Coastal Water Temperatures

Place Temperature

Nearby Weather Stations